Time;durP1;ratioP1;P1;durP2;ratioP2;P2;SDS_P1;SDS_P2;PMS_P1;PMS_P2;Temp;Humidity;BMP_temperature;BMP_pressure;BME280_temperature;BME280_humidity;BME280_pressure;Samples;Min_cycle;Max_cycle;Signal;HPM_P1;HPM_P2
2023/12/25 00:01:48;;;;;;;8.77;2.55;;;;;;;13.65;83.55;98404.28;4938340;29;20128;-77
2023/12/25 00:04:15;;;;;;;13.20;3.42;;;;;;;13.65;83.50;98404.28;4954545;29;20110;-77
2023/12/25 00:06:41;;;;;;;13.40;2.88;;;;;;;13.67;83.75;98391.75;4954336;28;20062;-78
2023/12/25 00:09:08;;;;;;;10.43;2.67;;;;;;;13.68;83.41;98400.50;4955895;28;20054;-76
2023/12/25 00:11:35;;;;;;;8.10;2.42;;;;;;;13.70;83.46;98390.63;4973686;28;20050;-79
2023/12/25 00:14:01;;;;;;;9.98;2.72;;;;;;;13.70;83.30;98401.22;4973846;28;20055;-77
2023/12/25 00:16:28;;;;;;;10.95;2.60;;;;;;;13.72;83.20;98385.22;4973900;28;20054;-77
2023/12/25 00:18:58;;;;;;;8.75;2.83;;;;;;;13.72;83.20;98399.25;4965708;28;20126;-76
2023/12/25 00:24:00;;;;;;;6.53;2.50;;;;;;;13.74;83.29;98396.47;5007640;22;20080;-78
2023/12/25 00:26:27;;;;;;;14.75;3.20;;;;;;;13.75;82.98;98377.81;4994830;28;20046;-80
2023/12/25 00:28:53;;;;;;;7.30;2.33;;;;;;;13.76;83.20;98390.06;5011388;28;20129;-79
2023/12/25 00:31:20;;;;;;;10.82;3.03;;;;;;;13.78;83.31;98398.69;5011817;28;20046;-80
2023/12/25 00:33:46;;;;;;;7.90;2.47;;;;;;;13.81;83.47;98394.94;5012143;28;20140;-79
2023/12/25 00:36:13;;;;;;;12.32;3.25;;;;;;;13.83;83.46;98406.19;5012447;28;20414;-78
2023/12/25 00:38:40;;;;;;;9.60;2.20;;;;;;;13.85;83.16;98409.53;4994506;28;20057;-78
2023/12/25 00:41:06;;;;;;;10.05;2.97;;;;;;;13.86;83.04;98397.97;4992473;28;20046;-78
2023/12/25 00:43:33;;;;;;;9.30;2.45;;;;;;;13.88;82.83;98414.56;4992526;28;20141;-78
2023/12/25 00:46:04;;;;;;;10.65;2.33;;;;;;;13.86;81.34;98400.63;4992577;28;20133;-78
2023/12/25 00:48:30;;;;;;;9.07;2.13;;;;;;;13.89;82.59;98391.56;4992778;28;20050;-77
2023/12/25 00:50:57;;;;;;;9.20;2.35;;;;;;;13.88;82.26;98403.97;5007195;28;20116;-78
2023/12/25 00:53:23;;;;;;;8.43;2.60;;;;;;;13.90;82.36;98409.94;5011925;28;20057;-78
2023/12/25 00:55:50;;;;;;;8.88;2.17;;;;;;;13.92;82.32;98408.00;5012010;28;20046;-77
2023/12/25 00:58:16;;;;;;;8.80;1.85;;;;;;;13.93;82.27;98408.81;5011741;28;20128;-80
2023/12/25 01:00:43;;;;;;;9.80;2.13;;;;;;;13.94;82.12;98413.13;4982423;28;20058;-78
2023/12/25 01:03:10;;;;;;;7.82;1.70;;;;;;;13.91;81.58;98408.97;4992319;28;20053;-80
2023/12/25 01:05:36;;;;;;;8.25;1.55;;;;;;;13.93;81.94;98391.16;4992183;28;20054;-79
2023/12/25 01:08:03;;;;;;;7.07;1.55;;;;;;;13.94;81.69;98407.84;4991966;28;20724;-80
2023/12/25 01:10:30;;;;;;;6.07;1.42;;;;;;;13.93;81.70;98408.81;4997982;28;20045;-80
2023/12/25 01:12:56;;;;;;;6.35;1.65;;;;;;;13.92;81.73;98418.59;5011534;28;20050;-79
2023/12/25 01:15:24;;;;;;;5.57;1.60;;;;;;;13.94;81.77;98415.78;5011567;28;20073;-79
2023/12/25 01:17:50;;;;;;;7.25;2.03;;;;;;;13.94;81.97;98415.78;5011655;28;20054;-80
2023/12/25 01:20:17;;;;;;;4.72;1.52;;;;;;;13.94;81.14;98429.84;5009870;28;20112;-78
2023/12/25 01:22:44;;;;;;;5.50;1.50;;;;;;;13.96;81.65;98436.81;4991789;28;20059;-79
2023/12/25 01:25:10;;;;;;;5.25;1.35;;;;;;;13.94;81.59;98440.44;4991907;28;20496;-79
2023/12/25 01:27:41;;;;;;;6.72;1.55;;;;;;;13.93;81.33;98417.59;4994151;28;20093;-78
2023/12/25 01:30:10;;;;;;;5.50;1.63;;;;;;;13.91;79.87;98435.41;4991747;28;20054;-80
2023/12/25 01:32:37;;;;;;;6.65;1.70;;;;;;;13.91;81.12;98424.84;4974419;28;20085;-78
2023/12/25 01:35:05;;;;;;;4.57;1.27;;;;;;;13.90;80.67;98428.47;4991762;28;20053;-79
2023/12/25 01:37:31;;;;;;;5.85;1.63;;;;;;;13.88;80.88;98430.44;5006417;28;20049;-81
2023/12/25 01:39:58;;;;;;;5.60;1.40;;;;;;;13.89;81.01;98428.59;5011319;28;20245;-78
2023/12/25 01:42:24;;;;;;;4.53;1.55;;;;;;;13.88;81.23;98435.72;5010890;28;20046;-79
2023/12/25 01:44:51;;;;;;;8.82;1.55;;;;;;;13.86;81.05;98427.06;5011456;28;20105;-79
2023/12/25 01:47:19;;;;;;;7.65;1.95;;;;;;;13.85;81.12;98433.34;5000800;28;20069;-79
2023/12/25 01:49:47;;;;;;;7.55;2.35;;;;;;;13.84;81.02;98430.84;4991494;28;20054;-78
2023/12/25 01:52:15;;;;;;;5.28;1.50;;;;;;;13.84;81.29;98417.63;4991283;28;20517;-78
2023/12/25 01:54:43;;;;;;;9.05;2.05;;;;;;;13.82;81.05;98425.69;4991505;28;20057;-78
2023/12/25 01:57:10;;;;;;;5.80;1.58;;;;;;;13.81;81.12;98435.44;4977052;28;20481;-79
2023/12/25 01:59:38;;;;;;;7.80;1.90;;;;;;;13.80;81.01;98431.13;5010950;28;20127;-78
2023/12/25 02:02:04;;;;;;;10.00;1.50;;;;;;;13.79;81.18;98439.19;5010949;28;20075;-79
2023/12/25 02:04:31;;;;;;;6.00;1.52;;;;;;;13.79;81.29;98441.84;5010850;28;20092;-78
2023/12/25 02:06:59;;;;;;;5.45;1.77;;;;;;;13.78;81.24;98445.47;5008039;28;20077;-79
2023/12/25 02:09:27;;;;;;;7.53;2.00;;;;;;;13.77;81.54;98451.72;4991046;28;20075;-79
2023/12/25 02:11:53;;;;;;;6.57;1.90;;;;;;;13.75;81.12;98448.41;4991206;28;20137;-78
2023/12/25 02:14:20;;;;;;;7.93;1.73;;;;;;;13.75;81.30;98440.47;4990761;28;20050;-78
2023/12/25 02:16:47;;;;;;;5.63;1.85;;;;;;;13.74;81.61;98436.97;4973683;28;20439;-79
2023/12/25 02:19:29;;;;;;;9.43;1.52;;;;;;;13.71;79.92;98454.94;5008057;28;20057;-80
2023/12/25 02:21:57;;;;;;;4.82;1.45;;;;;;;13.73;81.36;98445.06;4992934;28;20050;-79
2023/12/25 02:24:29;;;;;;;5.70;1.60;;;;;;;13.72;80.57;98454.78;4993231;28;20056;-79
2023/12/25 02:26:56;;;;;;;9.80;2.15;;;;;;;13.73;81.31;98468.84;5000921;28;20491;-77
2023/12/25 02:29:23;;;;;;;5.95;1.77;;;;;;;13.72;81.83;98452.13;5011723;28;20124;-79
2023/12/25 02:31:50;;;;;;;13.00;2.10;;;;;;;13.70;81.15;98464.69;4993017;28;20058;-79
2023/12/25 02:34:16;;;;;;;6.20;2.00;;;;;;;13.71;81.73;98449.66;4992871;28;20127;-80
2023/12/25 02:36:43;;;;;;;10.18;1.45;;;;;;;13.71;81.44;98444.38;5010528;28;20064;-77
2023/12/25 02:39:09;;;;;;;7.97;2.20;;;;;;;13.68;81.04;98456.88;4997990;28;20054;-79
2023/12/25 02:41:36;;;;;;;5.85;1.60;;;;;;;13.69;81.67;98484.16;4990868;28;20093;-79
2023/12/25 02:44:03;;;;;;;6.65;1.67;;;;;;;13.67;81.01;98483.47;4973615;28;20050;-78
2023/12/25 02:46:29;;;;;;;6.63;1.95;;;;;;;13.67;81.33;98486.94;4973347;28;20054;-78
2023/12/25 02:48:56;;;;;;;6.13;1.75;;;;;;;13.68;81.15;98493.06;4997474;28;20084;-78
2023/12/25 02:51:23;;;;;;;8.70;1.77;;;;;;;13.66;81.27;98490.56;5010175;28;20057;-78
2023/12/25 02:53:49;;;;;;;8.25;1.90;;;;;;;13.66;80.98;98482.66;5010532;28;20096;-78
2023/12/25 02:56:16;;;;;;;7.43;1.85;;;;;;;13.66;80.66;98479.16;4992836;28;20669;-78
2023/12/25 02:58:42;;;;;;;6.80;1.60;;;;;;;13.66;80.80;98479.16;4990322;28;20077;-77
2023/12/25 03:01:09;;;;;;;6.93;1.60;;;;;;;13.65;80.86;98478.31;4973729;28;20054;-77
2023/12/25 03:03:35;;;;;;;6.88;1.75;;;;;;;13.66;80.66;98479.16;4973262;28;20207;-78
2023/12/25 03:06:02;;;;;;;5.28;1.38;;;;;;;13.64;80.44;98476.66;4990954;28;20120;-78
2023/12/25 03:08:28;;;;;;;6.05;1.63;;;;;;;13.62;80.53;98461.91;4990564;28;20500;-78
2023/12/25 03:10:55;;;;;;;7.05;1.48;;;;;;;13.61;80.35;98466.34;4990716;28;20049;-78
2023/12/25 03:13:22;;;;;;;7.72;1.65;;;;;;;13.61;80.20;98455.75;4992671;28;20475;-81
2023/12/25 03:15:48;;;;;;;6.32;1.50;;;;;;;13.60;80.50;98462.03;5010157;28;20406;-79
2023/12/25 03:18:15;;;;;;;5.03;1.35;;;;;;;13.59;80.32;98470.09;4992405;28;20066;-78
2023/12/25 03:20:42;;;;;;;4.38;1.40;;;;;;;13.57;80.47;98467.59;4997627;28;20058;-81
2023/12/25 03:23:08;;;;;;;7.10;1.80;;;;;;;13.57;80.25;98475.53;4992382;28;20578;-80
2023/12/25 03:25:35;;;;;;;7.13;1.73;;;;;;;13.56;80.41;98471.22;4994235;28;20057;-78
2023/12/25 03:28:01;;;;;;;9.10;1.73;;;;;;;13.56;80.49;98487.06;4993819;28;20086;-78
2023/12/25 03:30:28;;;;;;;7.43;1.60;;;;;;;13.57;80.33;98482.63;5001670;28;20088;-79
2023/12/25 03:32:54;;;;;;;9.52;2.22;;;;;;;13.56;80.72;98489.72;5013174;28;20054;-78
2023/12/25 03:35:21;;;;;;;11.98;1.80;;;;;;;13.55;80.32;98488.06;4996250;28;20064;-80
2023/12/25 03:37:48;;;;;;;6.28;1.52;;;;;;;13.55;80.54;98503.91;5013360;28;20394;-77
2023/12/25 03:40:14;;;;;;;6.78;1.70;;;;;;;13.55;80.59;98496.84;5009545;28;20479;-78
2023/12/25 03:42:41;;;;;;;5.65;1.50;;;;;;;13.54;80.57;98487.22;4994064;28;20047;-78
2023/12/25 03:45:08;;;;;;;6.00;1.60;;;;;;;13.53;80.50;98509.34;4993640;28;20054;-82
2023/12/25 03:47:34;;;;;;;10.20;1.48;;;;;;;13.53;80.67;98505.88;4993723;28;20054;-78
2023/12/25 03:50:01;;;;;;;10.48;1.70;;;;;;;13.50;80.78;98500.84;4993882;28;20046;-80
2023/12/25 03:52:27;;;;;;;7.50;1.80;;;;;;;13.50;80.41;98506.97;4994111;28;20053;-78
2023/12/25 03:54:54;;;;;;;7.40;1.80;;;;;;;13.49;80.39;98504.47;5013129;28;20088;-78
2023/12/25 03:57:20;;;;;;;8.82;1.83;;;;;;;13.49;80.82;98507.13;5012927;28;20057;-78
2023/12/25 03:59:47;;;;;;;8.48;1.73;;;;;;;13.48;80.98;98508.91;5012896;28;20507;-78
2023/12/25 04:02:13;;;;;;;6.18;1.92;;;;;;;13.47;80.96;98506.38;4998323;28;20407;-77
2023/12/25 04:04:40;;;;;;;10.00;1.95;;;;;;;13.45;80.68;98508.34;4993295;28;20479;-78
2023/12/25 04:07:07;;;;;;;6.18;1.50;;;;;;;13.44;80.78;98507.50;4993429;28;20054;-79
2023/12/25 04:09:33;;;;;;;8.45;1.67;;;;;;;13.45;80.87;98509.16;4975826;28;20065;-79
2023/12/25 04:12:00;;;;;;;6.20;1.83;;;;;;;13.43;80.89;98511.13;4984817;28;20152;-80
2023/12/25 04:14:26;;;;;;;6.93;2.10;;;;;;;13.42;80.93;98499.69;5012914;28;20088;-77
2023/12/25 04:16:53;;;;;;;7.18;1.58;;;;;;;13.41;81.17;98494.53;5012729;28;20050;-78
2023/12/25 04:19:20;;;;;;;7.18;2.13;;;;;;;13.39;80.76;98499.97;5012483;28;20537;-78
2023/12/25 04:21:46;;;;;;;8.70;2.00;;;;;;;13.38;80.85;98500.94;5007254;28;20054;-78
2023/12/25 04:24:13;;;;;;;6.75;1.75;;;;;;;13.38;81.21;98506.22;4993441;28;20085;-77
2023/12/25 04:26:40;;;;;;;7.93;2.05;;;;;;;13.38;81.03;98500.13;4987642;28;20464;-79
2023/12/25 04:29:06;;;;;;;7.95;2.40;;;;;;;13.37;81.03;98512.50;5012454;28;20144;-78
2023/12/25 04:31:33;;;;;;;8.93;1.90;;;;;;;13.37;80.50;98524.84;5012642;28;20088;-78
2023/12/25 04:34:00;;;;;;;6.70;1.73;;;;;;;13.35;81.01;98522.34;5011487;28;20092;-79
2023/12/25 04:36:26;;;;;;;7.28;1.85;;;;;;;13.35;81.09;98532.91;5004827;28;20495;-81
2023/12/25 04:38:53;;;;;;;11.55;2.03;;;;;;;13.34;81.01;98520.69;4992558;28;20050;-77
2023/12/25 04:41:23;;;;;;;7.70;2.05;;;;;;;13.33;80.70;98529.59;4975424;28;20090;-78
2023/12/25 04:43:53;;;;;;;6.88;1.60;;;;;;;13.32;80.74;98527.94;4992499;28;20070;-78
2023/12/25 04:46:20;;;;;;;8.80;1.75;;;;;;;13.29;80.71;98528.19;4995964;28;20052;-78
2023/12/25 04:48:47;;;;;;;6.75;1.80;;;;;;;13.28;80.74;98545.84;4994581;28;20116;-77
2023/12/25 04:51:14;;;;;;;13.57;2.20;;;;;;;13.26;80.29;98541.66;5012183;28;20088;-78
2023/12/25 04:53:41;;;;;;;9.13;1.73;;;;;;;13.25;80.82;98555.84;5012082;28;20045;-78
2023/12/25 04:56:11;;;;;;;7.07;1.90;;;;;;;13.21;80.40;98557.09;5011828;28;20062;-78
2023/12/25 04:58:38;;;;;;;5.03;1.33;;;;;;;13.21;80.79;98563.22;4989469;28;20121;-78
2023/12/25 05:01:05;;;;;;;6.93;1.40;;;;;;;13.20;81.07;98544.84;4974954;28;20046;-77
2023/12/25 05:03:31;;;;;;;8.15;1.92;;;;;;;13.18;81.12;98555.56;4975171;28;20085;-77
2023/12/25 05:05:59;;;;;;;6.38;1.48;;;;;;;13.16;81.23;98553.03;4975160;28;20422;-79
2023/12/25 05:08:25;;;;;;;6.15;1.88;;;;;;;13.16;81.37;98560.97;4997823;28;20050;-77
2023/12/25 05:10:52;;;;;;;6.00;1.80;;;;;;;13.14;81.26;98564.72;4992481;28;20141;-79
2023/12/25 05:13:18;;;;;;;9.00;1.58;;;;;;;13.13;81.17;98563.06;4992140;28;20669;-83
2023/12/25 05:15:45;;;;;;;8.02;1.70;;;;;;;13.11;81.32;98554.41;4992218;28;20054;-79
2023/12/25 05:18:12;;;;;;;7.38;1.30;;;;;;;13.09;81.25;98557.19;4992306;28;20101;-77
2023/12/25 05:20:38;;;;;;;6.32;1.50;;;;;;;13.09;81.25;98559.81;4974927;28;20105;-78
2023/12/25 05:23:05;;;;;;;6.60;1.30;;;;;;;13.07;81.58;98567.06;4974314;28;20505;-79
2023/12/25 05:25:32;;;;;;;4.60;1.17;;;;;;;13.06;81.50;98567.19;4991863;28;20058;-79
2023/12/25 05:27:58;;;;;;;5.28;1.75;;;;;;;13.05;81.63;98566.38;4992020;28;20058;-77
2023/12/25 05:30:25;;;;;;;7.30;1.77;;;;;;;13.04;81.55;98556.75;5010080;28;20116;-78
2023/12/25 05:32:51;;;;;;;4.90;1.50;;;;;;;13.04;81.71;98559.38;5011322;28;20049;-77
2023/12/25 05:35:18;;;;;;;6.00;1.35;;;;;;;13.04;81.77;98556.75;4993905;28;20657;-79
2023/12/25 05:37:45;;;;;;;3.88;1.30;;;;;;;13.03;81.51;98553.28;5011022;28;20057;-81
2023/12/25 05:40:12;;;;;;;6.40;1.42;;;;;;;13.02;81.33;98561.34;4996734;28;20088;-78
2023/12/25 05:42:38;;;;;;;5.95;2.13;;;;;;;13.01;81.42;98576.34;4991549;28;20435;-78
2023/12/25 05:45:05;;;;;;;5.22;1.10;;;;;;;13.00;81.69;98568.56;5009723;28;20133;-80
2023/12/25 05:47:32;;;;;;;3.72;0.95;;;;;;;13.00;81.65;98571.19;5010905;28;20058;-78
2023/12/25 05:49:58;;;;;;;6.40;1.27;;;;;;;12.99;81.71;98572.16;4993775;28;20049;-77
2023/12/25 05:52:25;;;;;;;4.65;1.30;;;;;;;12.99;81.77;98582.72;5011016;28;20502;-80
2023/12/25 05:54:52;;;;;;;2.50;1.02;;;;;;;12.99;81.90;98595.94;4978897;28;20498;-78
2023/12/25 05:57:18;;;;;;;6.15;1.58;;;;;;;12.99;81.82;98574.81;4974070;28;20093;-82
2023/12/25 05:59:45;;;;;;;6.40;1.40;;;;;;;12.98;81.73;98568.69;4974094;28;20052;-79
2023/12/25 06:02:13;;;;;;;5.82;1.55;;;;;;;12.98;81.71;98575.78;4974022;28;20058;-81
2023/12/25 06:04:39;;;;;;;5.55;1.33;;;;;;;12.97;81.69;98576.75;5007133;28;20046;-78
2023/12/25 06:07:06;;;;;;;7.88;1.40;;;;;;;12.95;81.71;98590.09;4993030;28;20053;-78
2023/12/25 06:09:32;;;;;;;6.95;1.55;;;;;;;12.94;81.72;98590.22;5010521;28;20054;-78
2023/12/25 06:11:59;;;;;;;8.23;1.30;;;;;;;12.92;82.00;98589.50;4992895;28;20056;-81
2023/12/25 06:14:26;;;;;;;7.00;1.30;;;;;;;12.91;82.08;98599.25;4999294;28;20084;-78
2023/12/25 06:16:53;;;;;;;3.90;1.17;;;;;;;12.90;82.33;98602.88;4991210;28;20061;-81
2023/12/25 06:19:19;;;;;;;5.22;1.50;;;;;;;12.89;82.33;98606.44;4990817;28;20093;-78
2023/12/25 06:21:46;;;;;;;8.05;1.73;;;;;;;12.89;82.42;98594.09;4991161;28;20050;-79
2023/12/25 06:24:13;;;;;;;5.25;1.50;;;;;;;12.90;82.43;98600.22;4997273;28;20042;-79
2023/12/25 06:26:39;;;;;;;7.72;1.83;;;;;;;12.89;82.27;98609.94;5010059;28;20096;-82
2023/12/25 06:29:06;;;;;;;7.00;1.88;;;;;;;12.91;82.52;98604.53;5010755;28;20057;-82
2023/12/25 06:31:32;;;;;;;6.13;1.63;;;;;;;12.90;82.90;98598.41;5010529;28;20057;-81
2023/12/25 06:33:59;;;;;;;10.38;2.10;;;;;;;12.90;82.78;98598.41;5008812;28;20064;-81
2023/12/25 06:36:25;;;;;;;7.82;1.77;;;;;;;12.92;82.64;98600.06;4987152;28;20109;-80
2023/12/25 06:38:52;;;;;;;7.80;1.90;;;;;;;12.93;82.52;98604.41;5010340;28;20511;-82
2023/12/25 06:41:19;;;;;;;7.63;2.00;;;;;;;12.93;82.53;98607.03;4993014;28;20050;-84
2023/12/25 06:43:45;;;;;;;7.20;1.90;;;;;;;12.94;82.51;98606.06;4993169;28;20104;-82
2023/12/25 06:46:12;;;;;;;5.22;1.85;;;;;;;12.94;82.34;98606.06;5001286;28;20128;-81
2023/12/25 06:48:39;;;;;;;8.15;2.03;;;;;;;12.94;82.42;98629.84;4991140;28;20048;-83
2023/12/25 06:51:08;;;;;;;12.18;2.25;;;;;;;12.93;82.37;98620.25;4991115;28;20050;-84
2023/12/25 06:53:35;;;;;;;9.50;1.80;;;;;;;12.95;82.90;98639.44;4991212;28;20054;-82
2023/12/25 06:56:01;;;;;;;6.93;2.00;;;;;;;12.95;82.96;98640.28;5003158;28;20053;-81
2023/12/25 06:58:28;;;;;;;4.45;1.55;;;;;;;12.96;82.83;98635.81;4995184;28;20128;-81
2023/12/25 07:00:55;;;;;;;6.70;1.35;;;;;;;12.97;82.82;98642.78;5014010;28;20431;-79
2023/12/25 07:03:21;;;;;;;12.30;1.85;;;;;;;12.98;82.88;98641.81;4996482;28;20100;-80
2023/12/25 07:05:48;;;;;;;5.90;1.83;;;;;;;13.00;82.80;98624.03;5005849;28;20054;-81
2023/12/25 07:08:16;;;;;;;7.53;1.63;;;;;;;13.01;82.54;98623.06;4994678;28;20046;-81
2023/12/25 07:10:44;;;;;;;6.18;1.90;;;;;;;13.02;82.11;98614.19;4994443;28;20085;-81
2023/12/25 07:13:11;;;;;;;10.63;1.67;;;;;;;13.01;82.06;98623.91;4977322;28;20051;-83
2023/12/25 07:15:38;;;;;;;7.30;1.48;;;;;;;13.02;81.91;98630.03;4997598;28;20077;-80
2023/12/25 07:18:06;;;;;;;5.70;1.38;;;;;;;13.00;81.82;98626.66;5013050;28;20410;-81
2023/12/25 07:20:33;;;;;;;9.57;2.03;;;;;;;13.01;82.17;98631.00;4996699;28;20046;-81
2023/12/25 07:22:59;;;;;;;11.68;2.10;;;;;;;12.99;82.03;98639.06;5013812;28;20057;-80
2023/12/25 07:25:26;;;;;;;11.15;2.05;;;;;;;13.00;81.92;98624.03;5013670;28;20491;-79
2023/12/25 07:27:52;;;;;;;7.03;1.70;;;;;;;13.00;81.89;98648.66;4976895;28;20101;-81
2023/12/25 07:30:19;;;;;;;12.32;2.10;;;;;;;13.00;82.00;98637.22;4994026;28;20050;-81
2023/12/25 07:32:46;;;;;;;7.03;1.58;;;;;;;13.00;82.09;98642.50;4993967;28;20053;-82
2023/12/25 07:35:13;;;;;;;4.55;1.20;;;;;;;13.00;82.09;98661.84;4977076;28;20509;-83
2023/12/25 07:37:40;;;;;;;10.13;2.00;;;;;;;13.02;81.94;98667.00;5007279;28;20399;-81
2023/12/25 07:40:07;;;;;;;12.63;2.00;;;;;;;13.01;82.09;98665.34;5013561;28;20104;-80
2023/12/25 07:42:33;;;;;;;7.35;1.70;;;;;;;13.02;82.36;98662.53;4996211;28;20085;-82
2023/12/25 07:45:00;;;;;;;4.68;1.52;;;;;;;13.03;81.99;98680.09;5013386;28;20060;-81
2023/12/25 07:47:27;;;;;;;5.95;1.60;;;;;;;13.03;82.12;98690.66;4987857;28;20491;-80
2023/12/25 07:49:54;;;;;;;9.23;1.73;;;;;;;13.03;81.64;98682.72;4995850;28;20491;-81
2023/12/25 07:52:20;;;;;;;7.20;1.77;;;;;;;13.02;81.70;98699.53;5013359;28;20392;-81
2023/12/25 07:54:48;;;;;;;5.65;1.35;;;;;;;13.03;81.42;98706.50;5013331;28;20553;-82
2023/12/25 07:57:16;;;;;;;6.53;1.60;;;;;;;13.03;81.48;98701.22;5008126;28;20462;-82
2023/12/25 07:59:43;;;;;;;7.80;1.33;;;;;;;13.02;81.48;98707.47;4976494;28;20109;-82
2023/12/25 08:02:10;;;;;;;8.77;1.52;;;;;;;13.03;81.33;98703.03;4993425;28;20479;-81
2023/12/25 08:04:36;;;;;;;7.38;1.30;;;;;;;13.03;81.49;98700.38;4993667;28;20090;-79
2023/12/25 08:07:03;;;;;;;5.20;1.30;;;;;;;13.04;81.22;98699.41;4993337;28;20081;-80
2023/12/25 08:09:30;;;;;;;4.88;1.65;;;;;;;13.04;81.07;98702.03;5010501;28;20561;-79
2023/12/25 08:11:56;;;;;;;7.35;1.80;;;;;;;13.03;80.98;98690.66;5012813;28;20107;-79
2023/12/25 08:14:23;;;;;;;4.15;1.23;;;;;;;13.04;81.23;98686.19;4994879;28;20058;-81
2023/12/25 08:16:49;;;;;;;4.25;1.67;;;;;;;13.04;80.78;98673.00;4995535;28;20054;-79
2023/12/25 08:19:16;;;;;;;6.57;1.58;;;;;;;13.03;80.64;98682.72;4978926;28;20049;-82
2023/12/25 08:21:43;;;;;;;4.65;1.33;;;;;;;13.03;80.87;98697.75;4976108;28;20046;-78
2023/12/25 08:24:09;;;;;;;8.68;1.58;;;;;;;13.02;80.89;98712.75;4993133;28;20057;-80
2023/12/25 08:26:36;;;;;;;5.95;1.40;;;;;;;13.03;81.04;98718.88;4993228;28;20173;-79
2023/12/25 08:29:02;;;;;;;9.20;1.80;;;;;;;13.03;80.93;98718.88;4976465;28;20046;-82
2023/12/25 08:31:29;;;;;;;6.32;1.55;;;;;;;13.03;80.84;98718.88;4992917;28;20058;-80
2023/12/25 08:33:55;;;;;;;7.55;1.55;;;;;;;13.03;80.62;98717.09;4993312;28;20406;-81
2023/12/25 08:36:22;;;;;;;8.30;1.42;;;;;;;13.02;80.60;98715.38;4975897;28;20046;-79
2023/12/25 08:38:49;;;;;;;6.20;1.67;;;;;;;13.02;80.75;98719.84;4992619;28;20217;-82
2023/12/25 08:41:15;;;;;;;8.38;1.60;;;;;;;13.01;80.73;98728.75;4993617;28;20415;-80
2023/12/25 08:43:42;;;;;;;6.68;1.30;;;;;;;13.01;80.74;98734.03;5015268;28;20041;-79
2023/12/25 08:46:16;;;;;;;4.80;1.38;;;;;;;13.01;80.54;98734.03;5022332;28;20399;-79
2023/12/25 08:48:43;;;;;;;6.47;1.58;;;;;;;13.00;80.42;98737.63;5021568;28;20046;-79
2023/12/25 08:51:10;;;;;;;5.25;1.52;;;;;;;12.98;80.21;98713.97;5021641;28;20506;-78
2023/12/25 08:53:36;;;;;;;4.30;1.17;;;;;;;12.99;80.17;98736.78;5014723;28;20049;-78
2023/12/25 08:56:03;;;;;;;6.15;1.73;;;;;;;12.98;79.95;98752.78;4995015;28;20116;-80
2023/12/25 08:58:30;;;;;;;5.90;1.70;;;;;;;12.98;80.55;98761.50;5012148;28;20124;-79
2023/12/25 09:00:56;;;;;;;6.38;1.75;;;;;;;12.98;80.20;98769.44;5010688;28;20056;-79
2023/12/25 09:03:23;;;;;;;7.63;1.65;;;;;;;12.98;80.34;98777.34;5012124;28;20054;-80
2023/12/25 09:05:50;;;;;;;6.50;1.90;;;;;;;12.99;80.67;98781.69;4994334;28;20049;-79
2023/12/25 09:08:17;;;;;;;9.35;1.90;;;;;;;12.99;80.76;98786.97;4994031;28;20132;-83
2023/12/25 09:10:43;;;;;;;7.75;1.95;;;;;;;13.00;80.97;98782.53;4980497;28;20054;-81
2023/12/25 09:13:10;;;;;;;8.02;1.98;;;;;;;13.01;80.91;98792.16;4992087;28;20054;-79
2023/12/25 09:15:36;;;;;;;4.85;1.52;;;;;;;13.01;80.63;98792.16;4992194;28;20121;-79
2023/12/25 09:18:03;;;;;;;8.63;1.63;;;;;;;13.01;80.37;98790.31;4991945;28;20088;-78
2023/12/25 09:20:30;;;;;;;6.22;1.77;;;;;;;13.02;80.72;98786.72;4999465;28;20058;-81
2023/12/25 09:22:56;;;;;;;5.20;1.50;;;;;;;13.03;80.77;98779.63;4993829;28;20426;-79
2023/12/25 09:25:23;;;;;;;7.57;1.55;;;;;;;13.03;80.45;98777.84;5011671;28;20104;-80
2023/12/25 09:27:49;;;;;;;10.20;2.58;;;;;;;13.05;80.75;98779.50;4993758;28;20061;-80
2023/12/25 09:30:16;;;;;;;5.03;1.40;;;;;;;13.06;80.72;98784.66;4990179;28;20049;-81
2023/12/25 09:32:43;;;;;;;8.98;1.70;;;;;;;13.08;80.96;98789.84;5007853;28;20502;-81
2023/12/25 09:35:12;;;;;;;6.90;1.73;;;;;;;13.09;80.75;98792.31;5011385;28;20054;-79
2023/12/25 09:37:39;;;;;;;8.80;1.70;;;;;;;13.12;80.64;98802.63;5011515;28;20053;-79
2023/12/25 09:40:06;;;;;;;8.23;1.70;;;;;;;13.14;80.68;98799.88;4975723;28;20129;-78
2023/12/25 09:42:32;;;;;;;8.98;1.73;;;;;;;13.15;80.46;98815.59;4991763;28;20403;-79
2023/12/25 09:44:59;;;;;;;7.90;1.50;;;;;;;13.18;80.56;98808.38;4991676;28;20081;-83
2023/12/25 09:47:27;;;;;;;6.53;1.50;;;;;;;13.20;80.39;98807.28;4991508;28;20058;-79
2023/12/25 09:49:55;;;;;;;9.65;1.50;;;;;;;13.21;80.32;98818.69;5001801;28;20053;-79
2023/12/25 09:52:22;;;;;;;8.35;1.70;;;;;;;13.22;80.42;98826.50;5011324;28;20045;-81
2023/12/25 09:54:49;;;;;;;5.15;1.50;;;;;;;13.23;80.36;98822.88;5011319;28;20053;-80
2023/12/25 09:57:17;;;;;;;7.55;1.65;;;;;;;13.24;80.01;98835.13;4993777;28;20145;-81
2023/12/25 09:59:43;;;;;;;7.47;1.80;;;;;;;13.24;79.99;98829.84;5004994;28;20478;-78
2023/12/25 10:02:13;;;;;;;6.18;2.05;;;;;;;13.22;79.12;98813.28;5008158;28;20049;-81
2023/12/25 10:04:42;;;;;;;6.90;1.77;;;;;;;13.25;79.78;98822.75;5010886;28;20061;-78
2023/12/25 10:07:08;;;;;;;8.90;1.65;;;;;;;13.24;79.75;98824.56;5011452;28;20129;-81
2023/12/25 10:09:35;;;;;;;10.50;1.75;;;;;;;13.25;79.51;98815.69;4981302;28;20090;-79
2023/12/25 10:12:02;;;;;;;8.85;1.85;;;;;;;13.25;79.89;98804.25;4991455;28;20104;-81
2023/12/25 10:14:29;;;;;;;5.53;1.70;;;;;;;13.25;79.46;98820.13;4991478;28;20552;-81
2023/12/25 10:16:58;;;;;;;5.10;1.50;;;;;;;13.25;79.41;98831.53;4991357;28;20050;-79
2023/12/25 10:19:24;;;;;;;8.70;1.42;;;;;;;13.25;79.59;98833.34;4999268;28;20041;-78
2023/12/25 10:21:54;;;;;;;9.32;1.73;;;;;;;13.25;79.35;98817.47;5011090;28;20112;-81
2023/12/25 10:24:27;;;;;;;4.90;1.40;;;;;;;13.22;78.00;98817.72;5010768;28;20495;-79
2023/12/25 10:26:57;;;;;;;5.65;1.42;;;;;;;13.24;79.51;98818.44;5010961;28;20111;-78
2023/12/25 10:29:35;;;;;;;6.55;1.75;;;;;;;13.22;78.11;98815.09;5010444;28;20050;-78
2023/12/25 10:32:19;;;;;;;3.53;1.33;;;;;;;13.21;77.89;98823.97;5011807;28;20541;-78
2023/12/25 10:34:46;;;;;;;8.18;1.73;;;;;;;13.23;79.46;98822.88;4997454;28;20414;-81
2023/12/25 10:37:15;;;;;;;5.57;1.50;;;;;;;13.23;79.10;98822.06;5014966;28;20108;-80
2023/12/25 10:39:41;;;;;;;7.43;1.58;;;;;;;13.25;79.65;98833.34;4993568;28;20050;-78
2023/12/25 10:42:10;;;;;;;4.53;1.35;;;;;;;13.23;79.36;98833.47;4977977;28;20050;-78
2023/12/25 10:44:37;;;;;;;6.45;1.52;;;;;;;13.25;79.39;98817.47;4994837;28;20171;-80
2023/12/25 10:47:06;;;;;;;4.80;1.45;;;;;;;13.25;79.51;98820.13;4995209;28;20061;-80
2023/12/25 10:49:34;;;;;;;8.70;1.80;;;;;;;13.26;79.30;98824.44;4995098;28;20046;-80
2023/12/25 10:52:03;;;;;;;9.55;2.00;;;;;;;13.27;79.58;98805.81;5007133;28;20458;-80
2023/12/25 10:54:32;;;;;;;7.05;1.90;;;;;;;13.29;79.58;98809.19;4999490;28;20050;-78
2023/12/25 10:57:03;;;;;;;8.38;2.03;;;;;;;13.31;79.49;98824.06;5005242;28;20042;-79
2023/12/25 10:59:35;;;;;;;10.02;1.63;;;;;;;13.31;78.61;98821.41;5010364;28;20050;-79
2023/12/25 11:02:11;;;;;;;9.10;1.70;;;;;;;13.28;77.65;98818.03;5017959;28;20045;-78
2023/12/25 11:04:38;;;;;;;6.45;1.48;;;;;;;13.31;79.44;98814.34;5024825;28;20465;-78
2023/12/25 11:07:05;;;;;;;6.85;1.48;;;;;;;13.32;79.44;98823.94;5006125;28;20045;-78
2023/12/25 11:09:33;;;;;;;6.82;1.70;;;;;;;13.31;79.54;98830.19;5004168;28;20041;-81
2023/12/25 11:11:59;;;;;;;6.65;1.70;;;;;;;13.31;79.30;98832.00;5017793;28;20422;-79
2023/12/25 11:14:28;;;;;;;9.05;1.58;;;;;;;13.29;79.25;98822.38;5014892;28;20049;-78
2023/12/25 11:16:55;;;;;;;6.28;1.80;;;;;;;13.29;79.66;98814.47;5014492;28;20383;-79
2023/12/25 11:19:22;;;;;;;6.35;1.75;;;;;;;13.29;79.34;98824.19;4996898;28;20050;-78
2023/12/25 11:21:49;;;;;;;7.22;2.10;;;;;;;13.27;79.30;98811.09;5013394;28;20050;-81
2023/12/25 11:24:15;;;;;;;6.55;1.73;;;;;;;13.26;79.52;98795.34;5000109;28;20058;-79
2023/12/25 11:26:43;;;;;;;12.77;1.92;;;;;;;13.24;79.59;98802.59;4994713;28;20566;-78
2023/12/25 11:29:11;;;;;;;6.93;1.70;;;;;;;13.25;79.70;98809.53;4994505;28;20495;-80
2023/12/25 11:31:45;;;;;;;5.45;1.63;;;;;;;13.23;78.88;98827.34;5000758;28;20041;-79
2023/12/25 11:34:23;;;;;;;8.93;2.45;;;;;;;13.20;78.36;98817.03;5014105;28;20502;-79